sensor_id;sensor_type;location;lat;lon;timestamp;temperature;humidity
25154;DHT22;47555;51.038;6.280;2022-10-31T00:02:04;13.70;99.90
25154;DHT22;47555;51.038;6.280;2022-10-31T00:04:30;13.70;99.90
25154;DHT22;47555;51.038;6.280;2022-10-31T00:06:55;13.70;99.90
25154;DHT22;47555;51.038;6.280;2022-10-31T00:09:21;13.80;99.90
25154;DHT22;47555;51.038;6.280;2022-10-31T00:11:46;13.70;99.90
25154;DHT22;47555;51.038;6.280;2022-10-31T00:14:12;13.70;99.90
25154;DHT22;47555;51.038;6.280;2022-10-31T00:16:38;13.70;99.90
25154;DHT22;47555;51.038;6.280;2022-10-31T00:19:06;13.70;99.90
25154;DHT22;47555;51.038;6.280;2022-10-31T00:21:32;13.80;99.90
25154;DHT22;47555;51.038;6.280;2022-10-31T00:23:58;13.80;99.90
25154;DHT22;47555;51.038;6.280;2022-10-31T00:26:26;13.80;99.90
25154;DHT22;47555;51.038;6.280;2022-10-31T00:28:51;13.80;99.90
25154;DHT22;47555;51.038;6.280;2022-10-31T00:31:17;13.80;99.90
25154;DHT22;47555;51.038;6.280;2022-10-31T00:33:43;13.80;99.90
25154;DHT22;47555;51.038;6.280;2022-10-31T00:36:14;13.80;99.90
25154;DHT22;47555;51.038;6.280;2022-10-31T00:38:41;13.80;99.90
25154;DHT22;47555;51.038;6.280;2022-10-31T00:41:07;13.80;99.90
25154;DHT22;47555;51.038;6.280;2022-10-31T00:43:33;13.80;99.90
25154;DHT22;47555;51.038;6.280;2022-10-31T00:45:59;13.80;99.90
25154;DHT22;47555;51.038;6.280;2022-10-31T00:48:25;13.70;99.90
25154;DHT22;47555;51.038;6.280;2022-10-31T00:50:50;13.70;99.90
25154;DHT22;47555;51.038;6.280;2022-10-31T00:53:16;13.70;99.90
25154;DHT22;47555;51.038;6.280;2022-10-31T00:55:42;13.70;99.90
25154;DHT22;47555;51.038;6.280;2022-10-31T00:58:08;13.70;99.90
25154;DHT22;47555;51.038;6.280;2022-10-31T01:00:33;13.70;99.90
25154;DHT22;47555;51.038;6.280;2022-10-31T01:02:59;13.70;99.90
25154;DHT22;47555;51.038;6.280;2022-10-31T01:05:25;13.60;99.90
25154;DHT22;47555;51.038;6.280;2022-10-31T01:07:50;13.70;99.90
25154;DHT22;47555;51.038;6.280;2022-10-31T01:10:17;13.60;99.90
25154;DHT22;47555;51.038;6.280;2022-10-31T01:12:45;13.60;99.90
25154;DHT22;47555;51.038;6.280;2022-10-31T01:15:18;13.60;99.90
25154;DHT22;47555;51.038;6.280;2022-10-31T01:17:44;13.60;99.90
25154;DHT22;47555;51.038;6.280;2022-10-31T01:20:11;13.50;99.90
25154;DHT22;47555;51.038;6.280;2022-10-31T01:22:37;13.50;99.90
25154;DHT22;47555;51.038;6.280;2022-10-31T01:25:03;13.50;99.90
25154;DHT22;47555;51.038;6.280;2022-10-31T01:27:30;13.40;99.90
25154;DHT22;47555;51.038;6.280;2022-10-31T01:29:56;13.40;99.90
25154;DHT22;47555;51.038;6.280;2022-10-31T01:32:22;13.40;99.90
25154;DHT22;47555;51.038;6.280;2022-10-31T01:34:48;13.30;99.90
25154;DHT22;47555;51.038;6.280;2022-10-31T01:37:13;13.30;99.90
25154;DHT22;47555;51.038;6.280;2022-10-31T01:39:39;13.30;99.90
25154;DHT22;47555;51.038;6.280;2022-10-31T01:42:05;13.20;99.90
25154;DHT22;47555;51.038;6.280;2022-10-31T01:46:57;13.20;99.90
25154;DHT22;47555;51.038;6.280;2022-10-31T01:49:38;13.10;99.90
25154;DHT22;47555;51.038;6.280;2022-10-31T01:54:41;13.00;99.90
25154;DHT22;47555;51.038;6.280;2022-10-31T01:57:10;13.00;99.90
25154;DHT22;47555;51.038;6.280;2022-10-31T01:59:42;12.90;99.90
25154;DHT22;47555;51.038;6.280;2022-10-31T02:02:09;12.90;99.90
25154;DHT22;47555;51.038;6.280;2022-10-31T02:04:35;12.90;99.90
25154;DHT22;47555;51.038;6.280;2022-10-31T02:07:09;12.90;99.90
25154;DHT22;47555;51.038;6.280;2022-10-31T02:09:36;12.90;99.90
25154;DHT22;47555;51.038;6.280;2022-10-31T02:12:03;12.90;99.90
25154;DHT22;47555;51.038;6.280;2022-10-31T02:14:30;12.90;99.90
25154;DHT22;47555;51.038;6.280;2022-10-31T02:16:57;12.80;99.90
25154;DHT22;47555;51.038;6.280;2022-10-31T02:19:29;12.80;99.90
25154;DHT22;47555;51.038;6.280;2022-10-31T02:22:10;12.80;99.90
25154;DHT22;47555;51.038;6.280;2022-10-31T02:24:57;12.80;99.90
25154;DHT22;47555;51.038;6.280;2022-10-31T02:28:00;12.80;99.90
25154;DHT22;47555;51.038;6.280;2022-10-31T02:31:05;12.90;99.90
25154;DHT22;47555;51.038;6.280;2022-10-31T02:36:42;12.90;99.90
25154;DHT22;47555;51.038;6.280;2022-10-31T02:39:21;12.90;99.90
25154;DHT22;47555;51.038;6.280;2022-10-31T02:42:14;12.90;99.90
25154;DHT22;47555;51.038;6.280;2022-10-31T02:47:14;12.90;99.90
25154;DHT22;47555;51.038;6.280;2022-10-31T02:50:02;12.90;99.90
25154;DHT22;47555;51.038;6.280;2022-10-31T02:52:31;12.90;99.90
25154;DHT22;47555;51.038;6.280;2022-10-31T02:54:57;12.80;99.90
25154;DHT22;47555;51.038;6.280;2022-10-31T02:57:25;12.80;99.90
25154;DHT22;47555;51.038;6.280;2022-10-31T02:59:58;12.80;99.90
25154;DHT22;47555;51.038;6.280;2022-10-31T03:10:30;12.70;99.90
25154;DHT22;47555;51.038;6.280;2022-10-31T03:13:24;12.70;99.90
25154;DHT22;47555;51.038;6.280;2022-10-31T03:16:17;12.70;99.90
25154;DHT22;47555;51.038;6.280;2022-10-31T03:19:01;12.70;99.90
25154;DHT22;47555;51.038;6.280;2022-10-31T03:21:41;12.70;99.90
25154;DHT22;47555;51.038;6.280;2022-10-31T03:24:09;12.70;99.90
25154;DHT22;47555;51.038;6.280;2022-10-31T03:26:38;12.60;99.90
25154;DHT22;47555;51.038;6.280;2022-10-31T03:29:10;12.60;99.90
25154;DHT22;47555;51.038;6.280;2022-10-31T03:31:40;12.60;99.90
25154;DHT22;47555;51.038;6.280;2022-10-31T03:34:09;12.60;99.90
25154;DHT22;47555;51.038;6.280;2022-10-31T03:36:38;12.60;99.90
25154;DHT22;47555;51.038;6.280;2022-10-31T03:39:06;12.60;99.90
25154;DHT22;47555;51.038;6.280;2022-10-31T03:41:36;12.60;99.90
25154;DHT22;47555;51.038;6.280;2022-10-31T03:44:08;12.60;99.90
25154;DHT22;47555;51.038;6.280;2022-10-31T03:46:35;12.60;99.90
25154;DHT22;47555;51.038;6.280;2022-10-31T03:49:01;12.50;99.90
25154;DHT22;47555;51.038;6.280;2022-10-31T03:51:47;12.50;99.90
25154;DHT22;47555;51.038;6.280;2022-10-31T03:57:51;12.50;99.90
25154;DHT22;47555;51.038;6.280;2022-10-31T04:00:04;12.50;99.90
25154;DHT22;47555;51.038;6.280;2022-10-31T04:02:32;12.50;99.90
25154;DHT22;47555;51.038;6.280;2022-10-31T04:04:59;12.50;99.90
25154;DHT22;47555;51.038;6.280;2022-10-31T04:07:29;12.40;99.90
25154;DHT22;47555;51.038;6.280;2022-10-31T04:09:56;12.40;99.90
25154;DHT22;47555;51.038;6.280;2022-10-31T04:12:24;12.40;99.90
25154;DHT22;47555;51.038;6.280;2022-10-31T04:14:50;12.40;99.90
25154;DHT22;47555;51.038;6.280;2022-10-31T04:17:19;12.40;99.90
25154;DHT22;47555;51.038;6.280;2022-10-31T04:19:46;12.30;99.90
25154;DHT22;47555;51.038;6.280;2022-10-31T04:22:12;12.30;99.90
25154;DHT22;47555;51.038;6.280;2022-10-31T04:24:40;12.30;99.90
25154;DHT22;47555;51.038;6.280;2022-10-31T04:27:05;12.30;99.90
25154;DHT22;47555;51.038;6.280;2022-10-31T04:29:31;12.30;99.90
25154;DHT22;47555;51.038;6.280;2022-10-31T04:31:56;12.30;99.90
25154;DHT22;47555;51.038;6.280;2022-10-31T04:34:22;12.30;99.90
25154;DHT22;47555;51.038;6.280;2022-10-31T04:36:48;12.30;99.90
25154;DHT22;47555;51.038;6.280;2022-10-31T04:39:13;12.30;99.90
25154;DHT22;47555;51.038;6.280;2022-10-31T04:41:39;12.30;99.90
25154;DHT22;47555;51.038;6.280;2022-10-31T04:44:04;12.20;99.90
25154;DHT22;47555;51.038;6.280;2022-10-31T04:46:30;12.30;99.90
25154;DHT22;47555;51.038;6.280;2022-10-31T04:48:56;12.20;99.90
25154;DHT22;47555;51.038;6.280;2022-10-31T04:51:21;12.20;99.90
25154;DHT22;47555;51.038;6.280;2022-10-31T04:53:47;12.20;99.90
25154;DHT22;47555;51.038;6.280;2022-10-31T04:56:13;12.20;99.90
25154;DHT22;47555;51.038;6.280;2022-10-31T04:58:39;12.20;99.90
25154;DHT22;47555;51.038;6.280;2022-10-31T05:01:04;12.20;99.90
25154;DHT22;47555;51.038;6.280;2022-10-31T05:03:30;12.20;99.90
25154;DHT22;47555;51.038;6.280;2022-10-31T05:05:55;12.20;99.90
25154;DHT22;47555;51.038;6.280;2022-10-31T05:08:21;12.30;99.90
25154;DHT22;47555;51.038;6.280;2022-10-31T05:10:47;12.20;99.90
25154;DHT22;47555;51.038;6.280;2022-10-31T05:13:12;12.20;99.90
25154;DHT22;47555;51.038;6.280;2022-10-31T05:15:40;12.20;99.90
25154;DHT22;47555;51.038;6.280;2022-10-31T05:18:05;12.20;99.90
25154;DHT22;47555;51.038;6.280;2022-10-31T05:20:31;12.10;99.90
25154;DHT22;47555;51.038;6.280;2022-10-31T05:22:58;12.10;99.90
25154;DHT22;47555;51.038;6.280;2022-10-31T05:25:27;12.10;99.90
25154;DHT22;47555;51.038;6.280;2022-10-31T05:27:54;12.10;99.90
25154;DHT22;47555;51.038;6.280;2022-10-31T05:30:25;12.10;99.90
25154;DHT22;47555;51.038;6.280;2022-10-31T05:32:51;12.00;99.90
25154;DHT22;47555;51.038;6.280;2022-10-31T05:35:19;12.10;99.90
25154;DHT22;47555;51.038;6.280;2022-10-31T05:37:45;12.10;99.90
25154;DHT22;47555;51.038;6.280;2022-10-31T05:40:12;12.10;99.90
25154;DHT22;47555;51.038;6.280;2022-10-31T05:42:39;12.00;99.90
25154;DHT22;47555;51.038;6.280;2022-10-31T05:45:07;12.10;99.90
25154;DHT22;47555;51.038;6.280;2022-10-31T05:47:32;12.00;99.90
25154;DHT22;47555;51.038;6.280;2022-10-31T05:49:58;11.90;99.90
25154;DHT22;47555;51.038;6.280;2022-10-31T05:52:24;12.00;99.90
25154;DHT22;47555;51.038;6.280;2022-10-31T05:54:49;12.10;99.90
25154;DHT22;47555;51.038;6.280;2022-10-31T05:57:15;12.10;99.90
25154;DHT22;47555;51.038;6.280;2022-10-31T05:59:40;12.10;99.90
25154;DHT22;47555;51.038;6.280;2022-10-31T06:02:06;12.10;99.90
25154;DHT22;47555;51.038;6.280;2022-10-31T06:04:31;12.10;99.90
25154;DHT22;47555;51.038;6.280;2022-10-31T06:06:57;12.10;99.90
25154;DHT22;47555;51.038;6.280;2022-10-31T06:09:22;12.10;99.90
25154;DHT22;47555;51.038;6.280;2022-10-31T06:11:48;12.10;99.90
25154;DHT22;47555;51.038;6.280;2022-10-31T06:14:13;12.10;99.90
25154;DHT22;47555;51.038;6.280;2022-10-31T06:16:39;12.20;99.90
25154;DHT22;47555;51.038;6.280;2022-10-31T06:19:05;12.10;99.90
25154;DHT22;47555;51.038;6.280;2022-10-31T06:21:30;12.10;99.90
25154;DHT22;47555;51.038;6.280;2022-10-31T06:23:56;12.10;99.90
25154;DHT22;47555;51.038;6.280;2022-10-31T06:26:21;12.10;99.90
25154;DHT22;47555;51.038;6.280;2022-10-31T06:28:47;12.10;99.90
25154;DHT22;47555;51.038;6.280;2022-10-31T06:31:12;12.10;99.90
25154;DHT22;47555;51.038;6.280;2022-10-31T06:33:40;12.10;99.90
25154;DHT22;47555;51.038;6.280;2022-10-31T06:36:06;12.10;99.90
25154;DHT22;47555;51.038;6.280;2022-10-31T06:38:36;12.10;99.90
25154;DHT22;47555;51.038;6.280;2022-10-31T06:41:05;12.10;99.90
25154;DHT22;47555;51.038;6.280;2022-10-31T06:43:31;12.10;99.90
25154;DHT22;47555;51.038;6.280;2022-10-31T06:46:01;12.20;99.90
25154;DHT22;47555;51.038;6.280;2022-10-31T06:48:26;12.20;99.90
25154;DHT22;47555;51.038;6.280;2022-10-31T06:50:52;12.20;99.90
25154;DHT22;47555;51.038;6.280;2022-10-31T06:53:17;12.20;99.90
25154;DHT22;47555;51.038;6.280;2022-10-31T06:55:43;12.20;99.90
25154;DHT22;47555;51.038;6.280;2022-10-31T06:58:09;12.20;99.90
25154;DHT22;47555;51.038;6.280;2022-10-31T07:00:35;12.20;99.90
25154;DHT22;47555;51.038;6.280;2022-10-31T07:03:03;12.20;99.90
25154;DHT22;47555;51.038;6.280;2022-10-31T07:05:29;12.20;99.90
25154;DHT22;47555;51.038;6.280;2022-10-31T07:07:57;12.20;99.90
25154;DHT22;47555;51.038;6.280;2022-10-31T07:10:24;12.20;99.90
25154;DHT22;47555;51.038;6.280;2022-10-31T07:12:54;12.20;99.90
25154;DHT22;47555;51.038;6.280;2022-10-31T07:15:20;12.20;99.90
25154;DHT22;47555;51.038;6.280;2022-10-31T07:17:46;12.20;99.90
25154;DHT22;47555;51.038;6.280;2022-10-31T07:20:11;12.20;99.90
25154;DHT22;47555;51.038;6.280;2022-10-31T07:22:37;12.30;99.90
25154;DHT22;47555;51.038;6.280;2022-10-31T07:25:03;12.30;99.90
25154;DHT22;47555;51.038;6.280;2022-10-31T07:27:34;12.30;99.90
25154;DHT22;47555;51.038;6.280;2022-10-31T07:30:00;12.40;99.90
25154;DHT22;47555;51.038;6.280;2022-10-31T07:32:25;12.50;99.90
25154;DHT22;47555;51.038;6.280;2022-10-31T07:34:51;12.50;99.90
25154;DHT22;47555;51.038;6.280;2022-10-31T07:37:16;12.60;99.90
25154;DHT22;47555;51.038;6.280;2022-10-31T07:39:42;12.60;99.90
25154;DHT22;47555;51.038;6.280;2022-10-31T07:42:07;12.70;99.90
25154;DHT22;47555;51.038;6.280;2022-10-31T07:44:34;12.70;99.90
25154;DHT22;47555;51.038;6.280;2022-10-31T07:46:59;12.80;99.90
25154;DHT22;47555;51.038;6.280;2022-10-31T07:49:25;12.80;99.90
25154;DHT22;47555;51.038;6.280;2022-10-31T07:51:50;12.80;99.90
25154;DHT22;47555;51.038;6.280;2022-10-31T07:54:16;12.90;99.90
25154;DHT22;47555;51.038;6.280;2022-10-31T07:56:41;12.90;99.90
25154;DHT22;47555;51.038;6.280;2022-10-31T07:59:07;12.90;99.90
25154;DHT22;47555;51.038;6.280;2022-10-31T08:01:32;13.00;99.90
25154;DHT22;47555;51.038;6.280;2022-10-31T08:03:58;13.10;99.90
25154;DHT22;47555;51.038;6.280;2022-10-31T08:06:23;13.20;99.90
25154;DHT22;47555;51.038;6.280;2022-10-31T08:08:49;13.20;99.90
25154;DHT22;47555;51.038;6.280;2022-10-31T08:11:14;13.30;99.90
25154;DHT22;47555;51.038;6.280;2022-10-31T08:13:40;13.40;99.90
25154;DHT22;47555;51.038;6.280;2022-10-31T08:16:05;13.50;99.90
25154;DHT22;47555;51.038;6.280;2022-10-31T08:18:32;13.50;99.90
25154;DHT22;47555;51.038;6.280;2022-10-31T08:21:01;13.50;99.90
25154;DHT22;47555;51.038;6.280;2022-10-31T08:23:26;13.60;99.90
25154;DHT22;47555;51.038;6.280;2022-10-31T08:25:52;13.60;99.90
25154;DHT22;47555;51.038;6.280;2022-10-31T08:28:17;13.60;99.90
25154;DHT22;47555;51.038;6.280;2022-10-31T08:30:43;13.60;99.90
25154;DHT22;47555;51.038;6.280;2022-10-31T08:33:14;13.60;99.90
25154;DHT22;47555;51.038;6.280;2022-10-31T08:35:40;13.60;99.90
25154;DHT22;47555;51.038;6.280;2022-10-31T08:38:06;13.60;99.90
25154;DHT22;47555;51.038;6.280;2022-10-31T08:40:34;13.60;99.90
25154;DHT22;47555;51.038;6.280;2022-10-31T08:43:11;13.60;99.90
25154;DHT22;47555;51.038;6.280;2022-10-31T08:45:37;13.60;99.90
25154;DHT22;47555;51.038;6.280;2022-10-31T08:48:05;13.60;99.90
25154;DHT22;47555;51.038;6.280;2022-10-31T08:50:32;13.70;99.90
25154;DHT22;47555;51.038;6.280;2022-10-31T08:53:11;13.70;99.90
25154;DHT22;47555;51.038;6.280;2022-10-31T08:55:38;13.80;99.90
25154;DHT22;47555;51.038;6.280;2022-10-31T08:58:05;13.90;99.90
25154;DHT22;47555;51.038;6.280;2022-10-31T09:00:33;14.00;99.90
25154;DHT22;47555;51.038;6.280;2022-10-31T09:03:00;14.00;99.90
25154;DHT22;47555;51.038;6.280;2022-10-31T09:05:27;14.10;99.90
25154;DHT22;47555;51.038;6.280;2022-10-31T09:07:57;14.20;99.90
25154;DHT22;47555;51.038;6.280;2022-10-31T09:10:23;14.30;99.90
25154;DHT22;47555;51.038;6.280;2022-10-31T09:13:00;14.50;99.90
25154;DHT22;47555;51.038;6.280;2022-10-31T09:15:26;14.70;99.90
25154;DHT22;47555;51.038;6.280;2022-10-31T09:17:53;14.90;99.90
25154;DHT22;47555;51.038;6.280;2022-10-31T09:20:20;15.10;99.90
25154;DHT22;47555;51.038;6.280;2022-10-31T09:22:46;15.20;99.90
25154;DHT22;47555;51.038;6.280;2022-10-31T09:25:11;15.40;99.90
25154;DHT22;47555;51.038;6.280;2022-10-31T09:27:37;15.40;99.90
25154;DHT22;47555;51.038;6.280;2022-10-31T09:30:03;15.50;99.90
25154;DHT22;47555;51.038;6.280;2022-10-31T09:32:29;15.60;99.90
25154;DHT22;47555;51.038;6.280;2022-10-31T09:34:54;15.70;99.90
25154;DHT22;47555;51.038;6.280;2022-10-31T09:37:20;15.80;99.90
25154;DHT22;47555;51.038;6.280;2022-10-31T09:39:45;15.90;99.90
25154;DHT22;47555;51.038;6.280;2022-10-31T09:42:27;16.00;99.90
25154;DHT22;47555;51.038;6.280;2022-10-31T09:45:25;16.00;99.90
25154;DHT22;47555;51.038;6.280;2022-10-31T09:48:32;16.00;99.90
25154;DHT22;47555;51.038;6.280;2022-10-31T09:51:08;16.00;99.90
25154;DHT22;47555;51.038;6.280;2022-10-31T09:53:40;16.00;99.90
25154;DHT22;47555;51.038;6.280;2022-10-31T09:56:15;16.00;99.90
25154;DHT22;47555;51.038;6.280;2022-10-31T09:58:53;16.10;99.90
25154;DHT22;47555;51.038;6.280;2022-10-31T10:01:34;16.10;99.90
25154;DHT22;47555;51.038;6.280;2022-10-31T10:07:07;16.20;99.90
25154;DHT22;47555;51.038;6.280;2022-10-31T10:09:36;16.20;99.90
25154;DHT22;47555;51.038;6.280;2022-10-31T10:15:54;16.30;99.90
25154;DHT22;47555;51.038;6.280;2022-10-31T10:18:38;16.40;99.90
25154;DHT22;47555;51.038;6.280;2022-10-31T10:21:27;16.40;99.90
25154;DHT22;47555;51.038;6.280;2022-10-31T10:24:12;16.50;99.90
25154;DHT22;47555;51.038;6.280;2022-10-31T10:26:46;16.60;99.90
25154;DHT22;47555;51.038;6.280;2022-10-31T10:29:34;16.60;99.90
25154;DHT22;47555;51.038;6.280;2022-10-31T10:32:09;16.60;99.90
25154;DHT22;47555;51.038;6.280;2022-10-31T10:34:51;16.70;99.90
25154;DHT22;47555;51.038;6.280;2022-10-31T10:37:48;16.70;99.90
25154;DHT22;47555;51.038;6.280;2022-10-31T10:40:25;16.60;99.90
25154;DHT22;47555;51.038;6.280;2022-10-31T10:46:19;16.50;99.90
25154;DHT22;47555;51.038;6.280;2022-10-31T10:51:39;16.40;99.90
25154;DHT22;47555;51.038;6.280;2022-10-31T10:54:38;16.40;99.90
25154;DHT22;47555;51.038;6.280;2022-10-31T10:57:31;16.30;99.90
25154;DHT22;47555;51.038;6.280;2022-10-31T11:00:01;16.10;99.90
25154;DHT22;47555;51.038;6.280;2022-10-31T11:02:32;16.20;99.90
25154;DHT22;47555;51.038;6.280;2022-10-31T11:05:00;16.20;99.90
25154;DHT22;47555;51.038;6.280;2022-10-31T11:07:37;16.20;99.90
25154;DHT22;47555;51.038;6.280;2022-10-31T11:10:05;16.20;99.90
25154;DHT22;47555;51.038;6.280;2022-10-31T11:12:38;16.20;99.90
25154;DHT22;47555;51.038;6.280;2022-10-31T11:15:23;16.20;99.90
25154;DHT22;47555;51.038;6.280;2022-10-31T11:17:51;16.20;99.90
25154;DHT22;47555;51.038;6.280;2022-10-31T11:22:44;16.30;99.90
25154;DHT22;47555;51.038;6.280;2022-10-31T11:27:45;16.40;99.90
25154;DHT22;47555;51.038;6.280;2022-10-31T11:30:13;16.50;99.90
25154;DHT22;47555;51.038;6.280;2022-10-31T11:32:46;16.60;99.90
25154;DHT22;47555;51.038;6.280;2022-10-31T11:35:15;16.70;99.90
25154;DHT22;47555;51.038;6.280;2022-10-31T11:37:44;16.90;99.90
25154;DHT22;47555;51.038;6.280;2022-10-31T11:40:21;17.00;99.90
25154;DHT22;47555;51.038;6.280;2022-10-31T11:42:48;17.10;99.90
25154;DHT22;47555;51.038;6.280;2022-10-31T11:47:45;17.30;99.90
25154;DHT22;47555;51.038;6.280;2022-10-31T11:50:19;17.40;99.90
25154;DHT22;47555;51.038;6.280;2022-10-31T11:52:46;17.40;99.90
25154;DHT22;47555;51.038;6.280;2022-10-31T11:57:48;17.40;99.90
25154;DHT22;47555;51.038;6.280;2022-10-31T12:02:47;17.50;99.90
25154;DHT22;47555;51.038;6.280;2022-10-31T12:05:26;17.50;99.90
25154;DHT22;47555;51.038;6.280;2022-10-31T12:07:58;17.60;99.90
25154;DHT22;47555;51.038;6.280;2022-10-31T12:10:33;17.60;99.90
25154;DHT22;47555;51.038;6.280;2022-10-31T12:13:28;17.50;99.90
25154;DHT22;47555;51.038;6.280;2022-10-31T12:16:04;17.50;99.90
25154;DHT22;47555;51.038;6.280;2022-10-31T12:18:35;17.40;99.90
25154;DHT22;47555;51.038;6.280;2022-10-31T12:38:23;17.90;99.90
25154;DHT22;47555;51.038;6.280;2022-10-31T12:41:03;17.90;99.90
25154;DHT22;47555;51.038;6.280;2022-10-31T12:46:10;18.10;99.90
25154;DHT22;47555;51.038;6.280;2022-10-31T12:49:06;18.10;99.90
25154;DHT22;47555;51.038;6.280;2022-10-31T12:54:20;18.00;99.90
25154;DHT22;47555;51.038;6.280;2022-10-31T12:59:37;17.90;99.90
25154;DHT22;47555;51.038;6.280;2022-10-31T13:05:05;17.80;99.90
25154;DHT22;47555;51.038;6.280;2022-10-31T13:07:37;17.80;99.90
25154;DHT22;47555;51.038;6.280;2022-10-31T13:10:17;17.70;99.90
25154;DHT22;47555;51.038;6.280;2022-10-31T13:12:46;17.70;99.90
25154;DHT22;47555;51.038;6.280;2022-10-31T13:15:20;17.70;99.90
25154;DHT22;47555;51.038;6.280;2022-10-31T13:17:58;17.70;99.90
25154;DHT22;47555;51.038;6.280;2022-10-31T13:20:38;17.50;99.90
25154;DHT22;47555;51.038;6.280;2022-10-31T13:23:22;17.70;99.90
25154;DHT22;47555;51.038;6.280;2022-10-31T13:25:53;17.80;99.90
25154;DHT22;47555;51.038;6.280;2022-10-31T13:28:46;17.80;99.90
25154;DHT22;47555;51.038;6.280;2022-10-31T13:31:12;17.90;99.90
25154;DHT22;47555;51.038;6.280;2022-10-31T13:33:57;17.90;99.90
25154;DHT22;47555;51.038;6.280;2022-10-31T13:36:42;17.80;99.90
25154;DHT22;47555;51.038;6.280;2022-10-31T13:45:17;17.60;99.90
25154;DHT22;47555;51.038;6.280;2022-10-31T13:48:39;17.50;99.90
25154;DHT22;47555;51.038;6.280;2022-10-31T13:50:41;17.40;99.90
25154;DHT22;47555;51.038;6.280;2022-10-31T13:53:19;17.30;99.90
25154;DHT22;47555;51.038;6.280;2022-10-31T13:55:48;17.30;99.90
25154;DHT22;47555;51.038;6.280;2022-10-31T13:58:29;17.20;99.90
25154;DHT22;47555;51.038;6.280;2022-10-31T14:01:14;17.20;99.90
25154;DHT22;47555;51.038;6.280;2022-10-31T14:03:43;17.20;99.90
25154;DHT22;47555;51.038;6.280;2022-10-31T14:06:10;17.20;99.90
25154;DHT22;47555;51.038;6.280;2022-10-31T14:08:39;17.20;99.90
25154;DHT22;47555;51.038;6.280;2022-10-31T14:11:08;17.20;99.90
25154;DHT22;47555;51.038;6.280;2022-10-31T14:13:35;17.20;99.90
25154;DHT22;47555;51.038;6.280;2022-10-31T14:16:16;17.20;99.90
25154;DHT22;47555;51.038;6.280;2022-10-31T14:18:48;17.20;99.90
25154;DHT22;47555;51.038;6.280;2022-10-31T14:23:52;17.30;99.90
25154;DHT22;47555;51.038;6.280;2022-10-31T14:28:56;17.40;99.90
25154;DHT22;47555;51.038;6.280;2022-10-31T14:31:43;17.50;99.90
25154;DHT22;47555;51.038;6.280;2022-10-31T14:42:40;17.50;99.90
25154;DHT22;47555;51.038;6.280;2022-10-31T14:45:26;17.50;99.90
25154;DHT22;47555;51.038;6.280;2022-10-31T14:50:52;17.60;99.90
25154;DHT22;47555;51.038;6.280;2022-10-31T14:53:29;17.60;99.90
25154;DHT22;47555;51.038;6.280;2022-10-31T14:55:56;17.70;99.90
25154;DHT22;47555;51.038;6.280;2022-10-31T14:58:31;17.70;99.90
25154;DHT22;47555;51.038;6.280;2022-10-31T15:00:58;17.70;99.90
25154;DHT22;47555;51.038;6.280;2022-10-31T15:03:30;17.60;99.70
25154;DHT22;47555;51.038;6.280;2022-10-31T15:06:01;17.60;99.90
25154;DHT22;47555;51.038;6.280;2022-10-31T15:08:39;17.60;99.90
25154;DHT22;47555;51.038;6.280;2022-10-31T15:11:17;17.60;99.90
25154;DHT22;47555;51.038;6.280;2022-10-31T15:16:11;17.60;99.90
25154;DHT22;47555;51.038;6.280;2022-10-31T15:18:46;17.60;99.50
25154;DHT22;47555;51.038;6.280;2022-10-31T15:21:15;17.60;99.30
25154;DHT22;47555;51.038;6.280;2022-10-31T15:23:42;17.50;99.20
25154;DHT22;47555;51.038;6.280;2022-10-31T15:26:17;17.50;99.00
25154;DHT22;47555;51.038;6.280;2022-10-31T15:28:44;17.40;99.70
25154;DHT22;47555;51.038;6.280;2022-10-31T15:31:16;17.40;99.70
25154;DHT22;47555;51.038;6.280;2022-10-31T15:33:45;17.30;99.50
25154;DHT22;47555;51.038;6.280;2022-10-31T15:36:22;17.30;99.90
25154;DHT22;47555;51.038;6.280;2022-10-31T15:38:49;17.30;99.90
25154;DHT22;47555;51.038;6.280;2022-10-31T15:41:30;17.20;99.90
25154;DHT22;47555;51.038;6.280;2022-10-31T15:44:21;17.20;99.90
25154;DHT22;47555;51.038;6.280;2022-10-31T15:47:02;17.20;99.90
25154;DHT22;47555;51.038;6.280;2022-10-31T15:49:40;17.10;99.90
25154;DHT22;47555;51.038;6.280;2022-10-31T15:52:13;17.00;99.90
25154;DHT22;47555;51.038;6.280;2022-10-31T15:54:51;17.00;99.90
25154;DHT22;47555;51.038;6.280;2022-10-31T15:57:17;16.90;99.90
25154;DHT22;47555;51.038;6.280;2022-10-31T15:59:46;16.90;99.90
25154;DHT22;47555;51.038;6.280;2022-10-31T16:02:14;16.90;99.90
25154;DHT22;47555;51.038;6.280;2022-10-31T16:04:58;16.80;99.90
25154;DHT22;47555;51.038;6.280;2022-10-31T16:07:26;16.80;99.90
25154;DHT22;47555;51.038;6.280;2022-10-31T16:09:57;16.70;99.90
25154;DHT22;47555;51.038;6.280;2022-10-31T16:12:25;16.70;99.90
25154;DHT22;47555;51.038;6.280;2022-10-31T16:14:54;16.60;99.90
25154;DHT22;47555;51.038;6.280;2022-10-31T16:17:22;16.50;99.90
25154;DHT22;47555;51.038;6.280;2022-10-31T16:20:02;16.50;99.90
25154;DHT22;47555;51.038;6.280;2022-10-31T16:22:30;16.40;99.90
25154;DHT22;47555;51.038;6.280;2022-10-31T16:25:12;16.40;99.90
25154;DHT22;47555;51.038;6.280;2022-10-31T16:27:40;16.30;99.90
25154;DHT22;47555;51.038;6.280;2022-10-31T16:30:41;16.20;99.90
25154;DHT22;47555;51.038;6.280;2022-10-31T16:33:31;16.20;99.90
25154;DHT22;47555;51.038;6.280;2022-10-31T16:38:45;16.20;99.90
25154;DHT22;47555;51.038;6.280;2022-10-31T16:41:11;16.10;99.90
25154;DHT22;47555;51.038;6.280;2022-10-31T16:43:36;16.10;99.90
25154;DHT22;47555;51.038;6.280;2022-10-31T16:46:02;16.10;99.90
25154;DHT22;47555;51.038;6.280;2022-10-31T16:48:28;16.00;99.90
25154;DHT22;47555;51.038;6.280;2022-10-31T16:50:54;16.00;99.90
25154;DHT22;47555;51.038;6.280;2022-10-31T16:53:19;15.90;99.90
25154;DHT22;47555;51.038;6.280;2022-10-31T16:58:22;15.80;99.90
25154;DHT22;47555;51.038;6.280;2022-10-31T17:00:48;15.70;99.90
25154;DHT22;47555;51.038;6.280;2022-10-31T17:03:14;15.70;99.90
25154;DHT22;47555;51.038;6.280;2022-10-31T17:05:39;15.70;99.90
25154;DHT22;47555;51.038;6.280;2022-10-31T17:08:05;15.60;99.90
25154;DHT22;47555;51.038;6.280;2022-10-31T17:10:31;15.60;99.90
25154;DHT22;47555;51.038;6.280;2022-10-31T17:12:57;15.60;99.90
25154;DHT22;47555;51.038;6.280;2022-10-31T17:15:27;15.60;99.90
25154;DHT22;47555;51.038;6.280;2022-10-31T17:17:53;15.60;99.90
25154;DHT22;47555;51.038;6.280;2022-10-31T17:20:28;15.70;99.90
25154;DHT22;47555;51.038;6.280;2022-10-31T17:22:54;15.80;99.90
25154;DHT22;47555;51.038;6.280;2022-10-31T17:25:24;15.80;99.90
25154;DHT22;47555;51.038;6.280;2022-10-31T17:27:50;15.80;99.90
25154;DHT22;47555;51.038;6.280;2022-10-31T17:30:17;15.80;99.90
25154;DHT22;47555;51.038;6.280;2022-10-31T17:32:44;15.80;99.90
25154;DHT22;47555;51.038;6.280;2022-10-31T17:35:12;15.80;99.90
25154;DHT22;47555;51.038;6.280;2022-10-31T17:37:38;15.80;99.90